Terminal Aerodrome Forecast
Issued by NWS Sioux Falls, SD

Home | Current Version | Previous Version | Graphics & Text | Print | Product List | Glossary On
Versions: 1 2 3 4 5 6 7 8 9 10 11 12 13 14 15 16 17 18 19 20
000
FTUS43 KFSD 011140
TAFFSD
TAF
KFSD 011140Z 0112/0212 10005KT 5SM BR FEW050 BKN100
      TEMPO 0113/0114 3SM -SHRA BR OVC070
     FM011500 11005KT 6SM BR OVC100
     FM011700 13008KT P6SM SCT040 BKN120
     FM020000 12008KT P6SM BKN100
     FM020400 11008KT 6SM BR BKN060
     FM020800 10007KT 5SM SHRA BR OVC045
      TEMPO 0209/0211 4SM TSRA BKN025CB=

USA.gov is the U.S. government's official web portal to all federal, state and local government web resources and services.